createdAt,value
2022-10-18T00:01:54.248Z,100452.48
2022-10-18T00:06:58.025Z,100452.71
2022-10-18T00:12:01.025Z,100453.67
2022-10-18T00:17:04.373Z,100452.52
2022-10-18T00:22:07.333Z,100449.98
2022-10-18T00:27:10.265Z,100446.46
2022-10-18T00:32:13.255Z,100441.45
2022-10-18T00:37:17.173Z,100438.58
2022-10-18T00:42:23.032Z,100439.57
2022-10-18T00:47:26.695Z,100441.41
2022-10-18T00:52:37.878Z,100439.27
2022-10-18T00:57:43.467Z,100442.17
2022-10-18T01:02:47.929Z,100441.42
2022-10-18T01:08:17.392Z,100442.73
2022-10-18T01:14:02.454Z,100440.45
2022-10-18T01:19:45.237Z,100439.00
2022-10-18T01:25:18.709Z,100433.61
2022-10-18T01:30:41.487Z,100427.55
2022-10-18T01:35:53.137Z,100423.02
2022-10-18T01:40:58.262Z,100419.24
2022-10-18T01:46:02.801Z,100421.08
2022-10-18T01:51:06.199Z,100418.45
2022-10-18T01:56:09.326Z,100412.98
2022-10-18T02:01:40.788Z,100411.32
2022-10-18T02:06:47.170Z,100404.42
2022-10-18T02:11:54.818Z,100399.36
2022-10-18T02:17:03.398Z,100399.17
2022-10-18T02:22:10.928Z,100393.13
2022-10-18T02:27:14.457Z,100395.68
2022-10-18T02:32:20.188Z,100391.96
2022-10-18T02:37:24.774Z,100394.17
2022-10-18T02:42:44.295Z,100396.17
2022-10-18T02:47:47.937Z,100394.14
2022-10-18T02:52:50.891Z,100391.90
2022-10-18T02:57:53.832Z,100388.29
2022-10-18T03:02:56.746Z,100394.05
2022-10-18T03:07:59.874Z,100389.95
2022-10-18T03:13:02.786Z,100388.26
2022-10-18T03:18:05.820Z,100386.69
2022-10-18T03:23:09.177Z,100389.26
2022-10-18T03:28:12.057Z,100388.84
2022-10-18T03:33:15.343Z,100388.38
2022-10-18T03:38:18.420Z,100391.41
2022-10-18T03:43:21.715Z,100383.54
2022-10-18T03:48:25.370Z,100383.42
2022-10-18T03:53:28.312Z,100390.68
2022-10-18T03:58:31.308Z,100402.06
2022-10-18T04:03:34.343Z,100403.30
2022-10-18T04:08:37.278Z,100394.84
2022-10-18T04:13:40.165Z,100394.41
2022-10-18T04:18:43.166Z,100395.77
2022-10-18T04:23:50.349Z,100394.73
2022-10-18T04:28:53.316Z,100396.04
2022-10-18T04:33:56.334Z,100389.42
2022-10-18T04:38:59.222Z,100385.45
2022-10-18T04:44:02.211Z,100379.39
2022-10-18T04:49:05.177Z,100377.92
2022-10-18T04:54:08.069Z,100382.61
2022-10-18T04:59:10.984Z,100382.28
2022-10-18T05:04:13.915Z,100382.89
2022-10-18T05:09:16.981Z,100378.92
2022-10-18T05:14:19.951Z,100381.49
2022-10-18T05:19:22.848Z,100380.48
2022-10-18T05:24:27.708Z,100376.02
2022-10-18T05:29:30.922Z,100381.83
2022-10-18T05:34:33.874Z,100384.65
2022-10-18T05:39:38.371Z,100385.65
2022-10-18T05:44:41.353Z,100386.44
2022-10-18T05:49:44.274Z,100385.60
2022-10-18T05:54:47.192Z,100391.33
2022-10-18T05:59:50.172Z,100398.80
2022-10-18T06:04:53.086Z,100395.13
2022-10-18T06:09:56.265Z,100395.95
2022-10-18T06:14:59.266Z,100396.06
2022-10-18T06:20:02.201Z,100400.06
2022-10-18T06:25:05.697Z,100398.25
2022-10-18T06:30:09.431Z,100393.95
2022-10-18T06:35:12.386Z,100393.42
2022-10-18T06:40:15.294Z,100394.48
2022-10-18T06:45:18.610Z,100399.48
2022-10-18T06:50:21.511Z,100399.73
2022-10-18T06:55:24.442Z,100399.66
2022-10-18T07:00:27.706Z,100402.13
2022-10-18T07:10:40.330Z,100400.36
2022-10-18T07:15:43.272Z,100401.80
2022-10-18T07:20:46.201Z,100400.79
2022-10-18T07:25:49.133Z,100403.29
2022-10-18T07:30:52.689Z,100399.29
2022-10-18T07:35:55.617Z,100393.55
2022-10-18T07:41:03.547Z,100392.78
2022-10-18T07:46:06.676Z,100385.63
2022-10-18T07:51:10.800Z,100384.60
2022-10-18T07:56:20.940Z,100386.38
2022-10-18T08:01:25.728Z,100383.05
2022-10-18T08:06:28.686Z,100380.45
2022-10-18T08:11:31.906Z,100379.90
2022-10-18T08:16:34.834Z,100367.66
2022-10-18T08:21:37.767Z,100356.65
2022-10-18T08:26:40.803Z,100352.77
2022-10-18T08:31:43.736Z,100355.56
2022-10-18T08:36:46.986Z,100353.96
2022-10-18T08:42:09.028Z,100347.45
2022-10-18T08:47:22.709Z,100338.60
2022-10-18T08:52:59.381Z,100335.27
2022-10-18T08:58:33.749Z,100325.54
2022-10-18T09:03:51.678Z,100326.95
2022-10-18T09:09:17.312Z,100317.69
2022-10-18T09:14:20.632Z,100314.00
2022-10-18T09:19:56.011Z,100306.86
2022-10-18T09:25:24.001Z,100307.63
2022-10-18T09:30:32.867Z,100303.78
2022-10-18T09:36:01.718Z,100301.62
2022-10-18T09:41:23.679Z,100293.65
2022-10-18T09:46:34.026Z,100289.75
2022-10-18T09:51:42.218Z,100283.55
2022-10-18T09:57:07.426Z,100273.82
2022-10-18T10:02:17.828Z,100268.66
2022-10-18T10:07:33.982Z,100266.80
2022-10-18T10:12:40.379Z,100255.98
2022-10-18T10:17:43.696Z,100253.20
2022-10-18T10:22:50.408Z,100244.90
2022-10-18T10:27:53.672Z,100238.84
2022-10-18T10:32:56.898Z,100231.38
2022-10-18T10:38:00.310Z,100223.59
2022-10-18T10:43:39.275Z,100219.75
2022-10-18T10:49:21.791Z,100211.23
2022-10-18T10:54:24.556Z,100196.82
2022-10-18T10:59:32.525Z,100187.48
2022-10-18T11:04:35.624Z,100174.55
2022-10-18T11:10:01.572Z,100164.45
2022-10-18T11:15:10.668Z,100160.56
2022-10-18T11:20:23.399Z,100156.02
2022-10-18T11:26:02.222Z,100153.16
2022-10-18T11:31:46.329Z,100147.45
2022-10-18T11:37:28.073Z,100144.07
2022-10-18T11:43:16.721Z,100131.53
2022-10-18T11:48:51.761Z,100123.13
2022-10-18T11:54:42.795Z,100114.31
2022-10-18T12:05:33.032Z,100094.73
2022-10-18T12:10:46.223Z,100088.36
2022-10-18T12:16:05.469Z,100076.46
2022-10-18T12:21:08.451Z,100075.60
2022-10-18T12:26:11.923Z,100069.83
2022-10-18T12:31:35.110Z,100068.71
2022-10-18T12:36:56.498Z,100058.63
2022-10-18T12:41:59.824Z,100058.11
2022-10-18T12:47:05.903Z,100047.68
2022-10-18T12:52:23.729Z,100040.69
2022-10-18T12:58:07.273Z,100025.83
2022-10-18T13:03:10.854Z,100015.31
2022-10-18T13:08:29.421Z,100014.11
2022-10-18T13:14:11.079Z,100005.65
2022-10-18T13:20:27.258Z,100000.90
2022-10-18T13:25:36.712Z,99993.95
2022-10-18T13:31:01.875Z,99983.07
2022-10-18T13:36:22.467Z,99970.26
2022-10-18T13:41:47.811Z,99957.52
2022-10-18T13:46:51.601Z,99946.73
2022-10-18T13:52:25.471Z,99941.62
2022-10-18T13:57:54.404Z,99937.23
2022-10-18T14:03:00.496Z,99930.25
2022-10-18T14:08:15.824Z,99924.09
2022-10-18T14:13:25.490Z,99920.23
2022-10-18T14:18:36.325Z,99907.58
2022-10-18T14:23:45.352Z,99901.25
2022-10-18T14:29:06.599Z,99897.74
2022-10-18T14:34:15.516Z,99891.30
2022-10-18T14:39:27.579Z,99883.20
2022-10-18T14:44:32.485Z,99882.89
2022-10-18T14:49:44.692Z,99881.40
2022-10-18T14:54:47.852Z,99880.41
2022-10-18T14:59:58.451Z,99880.38
2022-10-18T15:05:31.362Z,99874.08
2022-10-18T15:10:36.116Z,99864.81
2022-10-18T15:15:40.385Z,99859.32
2022-10-18T15:20:43.530Z,99855.84
2022-10-18T15:25:46.729Z,99849.77
2022-10-18T15:30:49.677Z,99844.97
2022-10-18T15:35:53.982Z,99838.73
2022-10-18T15:40:57.146Z,99843.77
2022-10-18T15:46:06.547Z,99841.99
2022-10-18T15:51:40.079Z,99843.97
2022-10-18T15:56:43.848Z,99829.80
2022-10-18T16:01:47.031Z,99821.39
2022-10-18T16:06:50.427Z,99820.23
2022-10-18T16:11:57.076Z,99821.20
2022-10-18T16:17:05.870Z,99823.81
2022-10-18T16:27:21.570Z,99818.19
2022-10-18T16:32:24.477Z,99827.40
2022-10-18T16:37:27.467Z,99833.23
2022-10-18T16:42:30.701Z,99839.67
2022-10-18T16:47:33.890Z,99842.26
2022-10-18T16:52:36.791Z,99843.87
2022-10-18T16:57:39.726Z,99844.50
2022-10-18T17:02:42.712Z,99843.71
2022-10-18T17:07:47.096Z,99845.71
2022-10-18T17:12:52.005Z,99840.43
2022-10-18T17:17:54.937Z,99835.42
2022-10-18T17:22:57.826Z,99830.31
2022-10-18T17:28:00.748Z,99829.11
2022-10-18T17:33:03.703Z,99833.70
2022-10-18T17:38:08.162Z,99830.19
2022-10-18T17:43:13.496Z,99825.17
2022-10-18T17:48:16.473Z,99819.31
2022-10-18T17:53:23.049Z,99820.55
2022-10-18T17:58:26.015Z,99820.37
2022-10-18T18:03:28.955Z,99814.88
2022-10-18T18:08:32.402Z,99815.69
2022-10-18T18:13:35.330Z,99822.95
2022-10-18T18:18:38.478Z,99832.52
2022-10-18T18:23:41.708Z,99849.82
2022-10-18T18:28:45.321Z,99861.37
2022-10-18T18:33:48.726Z,99883.60
2022-10-18T18:38:56.885Z,99907.14
2022-10-18T18:44:04.472Z,99915.15
2022-10-18T18:49:08.306Z,99916.61
2022-10-18T18:54:14.450Z,99930.50
2022-10-18T18:59:20.285Z,99947.34
2022-10-18T19:04:23.168Z,99946.98
2022-10-18T19:09:27.476Z,99959.73
2022-10-18T19:14:30.488Z,99959.69
2022-10-18T19:19:34.299Z,99963.13
2022-10-18T19:24:37.413Z,99965.73
2022-10-18T19:29:41.327Z,99986.36
2022-10-18T19:34:44.668Z,99979.02
2022-10-18T19:39:47.556Z,99964.75
2022-10-18T19:44:50.456Z,99969.70
2022-10-18T19:49:54.024Z,99973.44
2022-10-18T19:54:56.961Z,99985.56
2022-10-18T20:00:00.769Z,99997.49
2022-10-18T20:05:04.446Z,99999.15
2022-10-18T20:10:09.469Z,99999.51
2022-10-18T20:15:12.463Z,100008.13
2022-10-18T20:20:15.364Z,100014.40
2022-10-18T20:25:18.281Z,100019.13
2022-10-18T20:30:21.349Z,100020.35
2022-10-18T20:35:24.523Z,100032.06
2022-10-18T20:40:27.473Z,100032.52
2022-10-18T20:45:30.412Z,100046.17
2022-10-18T20:50:33.344Z,100050.45
2022-10-18T20:55:38.855Z,100055.23
2022-10-18T21:00:41.860Z,100038.66
2022-10-18T21:05:44.743Z,100036.66
2022-10-18T21:10:47.677Z,100033.42
2022-10-18T21:15:55.833Z,100047.09
2022-10-18T21:21:18.433Z,100044.48
2022-10-18T21:26:25.027Z,100038.06
2022-10-18T21:31:37.275Z,100036.95
2022-10-18T21:36:41.744Z,100041.19
2022-10-18T21:41:45.515Z,100038.95
2022-10-18T21:46:48.525Z,100031.02
2022-10-18T21:51:51.423Z,100031.00
2022-10-18T21:56:54.351Z,100028.46
2022-10-18T22:01:57.406Z,100029.27
2022-10-18T22:07:00.309Z,100026.55
2022-10-18T22:12:03.552Z,100023.77
2022-10-18T22:17:06.490Z,100020.08
2022-10-18T22:22:10.534Z,100010.70
2022-10-18T22:27:13.459Z,100007.42
2022-10-18T22:32:16.373Z,100006.98
2022-10-18T22:37:19.258Z,100001.11
2022-10-18T22:42:22.223Z,100005.52
2022-10-18T22:47:25.529Z,100007.11
2022-10-18T22:52:28.432Z,100007.91
2022-10-18T22:57:31.325Z,100008.92
2022-10-18T23:02:34.732Z,100005.16
2022-10-18T23:07:37.894Z,100008.47
2022-10-18T23:12:40.842Z,100014.02
2022-10-18T23:17:43.762Z,100012.44
2022-10-18T23:22:46.701Z,100011.81
2022-10-18T23:27:49.665Z,100010.60
2022-10-18T23:32:52.888Z,100008.08
2022-10-18T23:37:55.811Z,100007.71
2022-10-18T23:42:58.725Z,100006.16
2022-10-18T23:48:01.648Z,100007.02
2022-10-18T23:53:04.580Z,100007.94
2022-10-18T23:58:07.510Z,100006.23
